Time;durP1;ratioP1;P1;durP2;ratioP2;P2;SDS_P1;SDS_P2;PMS_P1;PMS_P2;Temp;Humidity;BMP_temperature;BMP_pressure;BME280_temperature;BME280_humidity;BME280_pressure;Samples;Min_cycle;Max_cycle;Signal;HPM_P1;HPM_P2
2021/01/09 00:00:53;;;;;;;33.35;19.75;;;;;;;2.44;81.60;99136.09;4886435;29;20842;-80
2021/01/09 00:03:20;;;;;;;35.33;22.08;;;;;;;2.49;81.70;99131.50;4910902;29;20218;-81
2021/01/09 00:05:46;;;;;;;33.15;21.17;;;;;;;2.62;81.16;99131.94;4884398;29;20198;-78
2021/01/09 00:08:12;;;;;;;35.10;21.13;;;;;;;2.65;81.17;99127.41;4889711;29;20222;-78
2021/01/09 00:10:38;;;;;;;38.97;22.17;;;;;;;2.44;81.53;99128.13;4898949;29;20238;-79
2021/01/09 00:13:05;;;;;;;33.60;21.10;;;;;;;2.33;82.24;99122.28;4882567;29;20261;-79
2021/01/09 00:15:33;;;;;;;32.05;21.02;;;;;;;2.26;82.83;99120.78;4899249;29;20284;-80
2021/01/09 00:18:01;;;;;;;34.92;20.90;;;;;;;2.23;82.79;99120.88;4905560;29;20209;-79
2021/01/09 00:20:27;;;;;;;31.30;20.52;;;;;;;2.20;83.01;99128.06;4890052;29;20221;-78
2021/01/09 00:22:53;;;;;;;35.22;21.20;;;;;;;2.22;82.82;99124.47;4906320;29;20249;-78
2021/01/09 00:25:19;;;;;;;31.35;20.73;;;;;;;2.05;83.07;99129.44;4881017;29;20286;-80
2021/01/09 00:27:45;;;;;;;36.10;21.05;;;;;;;1.88;83.54;99120.28;4879283;29;20225;-79
2021/01/09 00:30:18;;;;;;;35.20;21.60;;;;;;;1.77;83.73;99119.72;4866362;29;20238;-80
2021/01/09 00:32:45;;;;;;;30.75;21.13;;;;;;;1.75;83.98;99127.72;4898130;29;20198;-80
2021/01/09 00:35:14;;;;;;;36.05;21.60;;;;;;;1.59;84.38;99123.81;4909905;29;20287;-79
2021/01/09 00:37:40;;;;;;;28.40;19.50;;;;;;;1.44;85.18;99126.94;4911930;29;20206;-78
2021/01/09 00:40:07;;;;;;;34.30;20.55;;;;;;;1.42;84.98;99126.09;4931354;29;20248;-78
2021/01/09 00:42:41;;;;;;;36.13;20.98;;;;;;;1.36;85.26;99122.78;4894761;29;20226;-79
2021/01/09 00:45:09;;;;;;;33.95;20.23;;;;;;;1.68;84.37;99130.63;4910913;29;20204;-79
2021/01/09 00:47:35;;;;;;;36.15;23.05;;;;;;;1.77;83.96;99140.94;4891060;29;20202;-80
2021/01/09 00:50:02;;;;;;;30.88;20.55;;;;;;;1.63;84.42;99137.84;4883355;29;20233;-80
2021/01/09 00:52:29;;;;;;;32.83;19.92;;;;;;;1.77;84.10;99133.88;4880766;29;20294;-80
2021/01/09 00:54:55;;;;;;;35.05;21.20;;;;;;;1.63;83.93;99133.44;4908225;29;20238;-80
2021/01/09 00:57:21;;;;;;;34.42;22.02;;;;;;;1.38;84.65;99126.22;4880931;29;20926;-80
2021/01/09 00:59:50;;;;;;;37.03;21.17;;;;;;;1.69;84.30;99127.91;4909359;29;20320;-79
2021/01/09 01:02:16;;;;;;;35.13;20.73;;;;;;;1.81;83.75;99143.44;4879465;29;20603;-80
2021/01/09 01:04:42;;;;;;;34.53;20.08;;;;;;;1.76;84.18;99142.75;4872184;29;20222;-80
2021/01/09 01:07:08;;;;;;;35.53;20.73;;;;;;;1.95;84.29;99146.56;4881467;29;20355;-81
2021/01/09 01:09:35;;;;;;;36.45;23.75;;;;;;;1.85;84.35;99150.41;4867482;29;20241;-81
2021/01/09 01:12:02;;;;;;;31.10;21.23;;;;;;;1.77;84.62;99152.41;4878594;29;20194;-81
2021/01/09 01:14:29;;;;;;;31.17;22.00;;;;;;;1.79;84.89;99155.00;4880587;29;20541;-81
2021/01/09 01:16:55;;;;;;;39.17;22.08;;;;;;;1.78;85.10;99155.91;4886404;29;20214;-80
2021/01/09 01:19:23;;;;;;;35.40;21.10;;;;;;;1.86;85.09;99153.94;4887404;29;20229;-80
2021/01/09 01:21:49;;;;;;;33.83;20.73;;;;;;;1.83;85.30;99159.31;4873244;29;20230;-80
2021/01/09 01:24:16;;;;;;;35.83;23.20;;;;;;;1.88;85.23;99158.25;4882931;29;20228;-80
2021/01/09 01:26:42;;;;;;;43.15;26.33;;;;;;;1.95;85.38;99165.13;4896984;29;20358;-80
2021/01/09 01:29:08;;;;;;;44.33;27.75;;;;;;;1.97;84.54;99167.69;4879942;29;20328;-81
2021/01/09 01:31:34;;;;;;;39.72;24.08;;;;;;;1.97;84.32;99170.34;4892628;29;20330;-79
2021/01/09 01:34:01;;;;;;;45.20;23.80;;;;;;;1.94;84.05;99167.81;4890140;29;20293;-81
2021/01/09 01:36:27;;;;;;;39.40;24.23;;;;;;;1.93;84.05;99172.22;4893313;29;20236;-81
2021/01/09 01:38:53;;;;;;;38.08;24.73;;;;;;;1.84;84.04;99175.19;4877530;29;20209;-80
2021/01/09 01:41:19;;;;;;;33.45;22.13;;;;;;;1.88;84.09;99170.66;4897029;29;20260;-80
2021/01/09 01:43:45;;;;;;;36.08;21.75;;;;;;;1.93;84.17;99174.03;4887192;29;20221;-81
2021/01/09 01:46:13;;;;;;;32.10;19.15;;;;;;;1.89;83.85;99173.25;4875046;29;20257;-78
2021/01/09 01:48:39;;;;;;;30.58;21.80;;;;;;;1.93;84.07;99169.56;4908235;29;20218;-80
2021/01/09 01:51:06;;;;;;;32.97;21.42;;;;;;;1.94;83.53;99175.75;4883481;29;20257;-81
2021/01/09 01:53:33;;;;;;;35.53;22.75;;;;;;;1.97;83.81;99171.22;4881901;29;20221;-82
2021/01/09 01:55:59;;;;;;;35.65;22.20;;;;;;;2.01;83.27;99174.66;4862691;29;20245;-79
2021/01/09 01:58:26;;;;;;;40.20;21.60;;;;;;;1.97;83.06;99170.34;4892343;29;20257;-79
2021/01/09 02:00:52;;;;;;;37.00;22.50;;;;;;;1.83;83.13;99173.44;4890340;29;20744;-80
2021/01/09 02:03:20;;;;;;;33.80;21.05;;;;;;;1.71;83.34;99178.22;4890989;29;20215;-81
2021/01/09 02:05:56;;;;;;;37.85;21.85;;;;;;;1.61;83.39;99172.31;4876937;29;20584;-81
2021/01/09 02:08:27;;;;;;;38.70;22.88;;;;;;;1.55;83.79;99179.59;4858904;29;20241;-81
2021/01/09 02:10:58;;;;;;;33.47;21.25;;;;;;;1.46;83.76;99178.09;4873800;28;20234;-80
2021/01/09 02:13:56;;;;;;;36.15;22.35;;;;;;;1.28;84.32;99189.19;4871990;29;20233;-79
2021/01/09 02:16:24;;;;;;;34.85;22.73;;;;;;;1.19;84.78;99199.16;4873467;29;20320;-79
2021/01/09 02:18:56;;;;;;;37.03;23.63;;;;;;;1.15;85.09;99198.38;4909560;29;20230;-80
2021/01/09 02:21:33;;;;;;;38.88;22.45;;;;;;;1.04;85.20;99195.16;4907797;29;20234;-80
2021/01/09 02:23:58;;;;;;;37.60;22.17;;;;;;;0.96;85.29;99202.44;4907175;29;20829;-80
2021/01/09 02:26:24;;;;;;;35.58;22.58;;;;;;;0.84;85.50;99196.59;4903249;29;20268;-79
2021/01/09 02:28:51;;;;;;;38.20;23.33;;;;;;;0.75;85.83;99205.66;4882800;29;20627;-80
2021/01/09 02:31:21;;;;;;;36.88;22.30;;;;;;;0.65;86.42;99198.84;4876307;29;20223;-79
2021/01/09 02:33:49;;;;;;;39.10;23.55;;;;;;;0.61;86.52;99205.13;4894742;29;20230;-80
2021/01/09 02:36:18;;;;;;;38.65;22.80;;;;;;;0.62;86.95;99211.28;4889854;29;20686;-81
2021/01/09 02:38:44;;;;;;;43.60;24.55;;;;;;;0.95;86.79;99198.06;4904923;29;20301;-80
2021/01/09 02:41:13;;;;;;;41.42;24.48;;;;;;;1.03;86.22;99203.16;4882195;29;20245;-80
2021/01/09 02:43:39;;;;;;;44.28;25.23;;;;;;;0.86;86.81;99200.97;4890636;29;20222;-80
2021/01/09 02:46:05;;;;;;;38.38;22.80;;;;;;;0.69;87.54;99203.16;4892619;29;20229;-81
2021/01/09 02:48:32;;;;;;;37.75;23.92;;;;;;;0.88;88.26;99207.06;4896637;29;20225;-81
2021/01/09 02:50:58;;;;;;;39.20;24.55;;;;;;;0.80;87.25;99203.75;4885339;29;20238;-80
2021/01/09 02:53:24;;;;;;;38.25;23.30;;;;;;;0.70;87.67;99210.19;4895435;29;20258;-80
2021/01/09 02:55:50;;;;;;;41.23;23.00;;;;;;;0.81;87.15;99197.56;4880417;29;20273;-80
2021/01/09 02:58:16;;;;;;;38.42;22.60;;;;;;;0.58;87.87;99201.69;4872437;29;20540;-80
2021/01/09 03:00:42;;;;;;;38.60;23.48;;;;;;;0.72;87.43;99196.91;4881695;29;20285;-79
2021/01/09 03:03:08;;;;;;;35.55;21.05;;;;;;;0.81;87.16;99202.84;4872702;29;20218;-78
2021/01/09 03:05:34;;;;;;;39.65;23.38;;;;;;;0.99;86.19;99207.66;4877964;29;20296;-77
2021/01/09 03:08:02;;;;;;;39.20;23.27;;;;;;;0.62;86.76;99206.88;4906009;29;20224;-80
2021/01/09 03:10:28;;;;;;;46.47;25.13;;;;;;;0.44;87.37;99204.66;4892881;29;20241;-78
2021/01/09 03:12:54;;;;;;;40.20;24.13;;;;;;;0.29;87.87;99199.75;4891157;29;20356;-80
2021/01/09 03:15:20;;;;;;;35.65;22.58;;;;;;;0.15;88.35;99211.56;4867453;29;20242;-78
2021/01/09 03:17:48;;;;;;;42.97;24.35;;;;;;;0.06;88.86;99207.34;4882558;29;20576;-80
2021/01/09 03:20:15;;;;;;;40.78;24.52;;;;;;;-0.02;89.17;99211.94;4878147;29;20780;-84
2021/01/09 03:22:42;;;;;;;38.00;22.95;;;;;;;-0.08;89.22;99216.47;4891886;29;20236;-80
2021/01/09 03:25:09;;;;;;;38.83;22.50;;;;;;;-0.01;88.96;99224.25;4894866;29;20236;-80
2021/01/09 03:27:35;;;;;;;36.35;21.23;;;;;;;-0.11;89.26;99213.91;4884934;29;20240;-79
2021/01/09 03:30:01;;;;;;;39.70;22.63;;;;;;;-0.13;89.26;99216.59;4879872;29;20218;-79
2021/01/09 03:32:27;;;;;;;38.17;21.63;;;;;;;-0.17;89.85;99215.81;4914294;29;20194;-80
2021/01/09 03:34:53;;;;;;;40.28;21.80;;;;;;;-0.13;89.72;99217.50;4883238;29;20657;-80
2021/01/09 03:37:19;;;;;;;39.67;21.30;;;;;;;-0.11;90.32;99206.84;4870639;29;20290;-80
2021/01/09 03:39:45;;;;;;;36.30;21.67;;;;;;;-0.08;90.23;99213.84;4893859;29;20526;-79
2021/01/09 03:42:11;;;;;;;35.08;20.35;;;;;;;-0.04;90.33;99207.59;4904934;29;20478;-80
2021/01/09 03:44:38;;;;;;;43.00;21.00;;;;;;;0.23;89.92;99207.84;4876205;29;20471;-80
2021/01/09 03:47:04;;;;;;;34.72;20.55;;;;;;;0.29;89.72;99212.09;4905210;29;20832;-79
2021/01/09 03:49:30;;;;;;;35.90;20.98;;;;;;;0.29;89.16;99207.69;4860315;29;20300;-79
2021/01/09 03:51:56;;;;;;;36.35;20.10;;;;;;;0.37;89.75;99203.06;4889514;29;20241;-78
2021/01/09 03:54:23;;;;;;;36.90;22.05;;;;;;;0.45;89.53;99200.25;4879752;29;20226;-80
2021/01/09 03:56:49;;;;;;;35.50;21.50;;;;;;;0.50;89.33;99193.94;4893378;29;20206;-80
2021/01/09 03:59:16;;;;;;;33.72;19.52;;;;;;;0.63;89.16;99192.72;4877726;29;20316;-78
2021/01/09 04:01:42;;;;;;;34.90;20.40;;;;;;;0.76;88.05;99204.72;4879059;29;20257;-79
2021/01/09 04:04:10;;;;;;;38.63;20.30;;;;;;;0.74;87.73;99213.63;4896484;29;20260;-79
2021/01/09 04:06:42;;;;;;;30.48;19.05;;;;;;;0.71;87.12;99203.97;4908994;29;20226;-79
2021/01/09 04:09:07;;;;;;;37.95;20.25;;;;;;;0.69;86.38;99213.75;4880338;29;20233;-78
2021/01/09 04:11:33;;;;;;;35.17;20.00;;;;;;;0.68;86.05;99204.06;4876544;29;20784;-79
2021/01/09 04:13:59;;;;;;;31.77;17.92;;;;;;;0.65;86.01;99212.06;4865377;29;20261;-78
2021/01/09 04:16:26;;;;;;;32.92;18.58;;;;;;;0.55;85.73;99221.16;4886704;29;20229;-79
2021/01/09 04:18:52;;;;;;;29.45;17.90;;;;;;;0.84;85.29;99201.91;4870568;29;20226;-79
2021/01/09 04:21:18;;;;;;;36.00;21.23;;;;;;;0.72;84.95;99211.00;4883558;29;20222;-79
2021/01/09 04:23:44;;;;;;;32.20;20.00;;;;;;;0.68;85.33;99219.94;4885355;29;20220;-79
2021/01/09 04:26:15;;;;;;;32.92;19.20;;;;;;;0.80;85.79;99224.94;4887940;29;20237;-79
2021/01/09 04:28:41;;;;;;;32.92;19.20;;;;;;;0.81;85.46;99215.19;4909753;29;20225;-78
2021/01/09 04:31:08;;;;;;;33.35;20.40;;;;;;;0.79;85.74;99225.81;4900624;29;20230;-78
2021/01/09 04:33:34;;;;;;;31.98;21.27;;;;;;;0.85;85.32;99227.47;4881802;29;20222;-79
2021/01/09 04:36:00;;;;;;;31.67;19.45;;;;;;;0.95;85.00;99227.16;4896324;29;20281;-79
2021/01/09 04:38:26;;;;;;;32.35;20.08;;;;;;;0.87;85.38;99223.88;4895224;29;20229;-79
2021/01/09 04:40:54;;;;;;;31.60;19.60;;;;;;;0.87;84.89;99231.81;4865647;29;20236;-79
2021/01/09 04:43:23;;;;;;;30.35;18.70;;;;;;;0.87;84.82;99234.44;4896317;29;20234;-78
2021/01/09 04:45:49;;;;;;;32.63;19.30;;;;;;;0.87;84.86;99230.91;4889174;29;20324;-78
2021/01/09 04:48:15;;;;;;;32.55;20.13;;;;;;;0.82;84.74;99236.34;4895873;29;20293;-79
2021/01/09 04:50:42;;;;;;;32.28;18.00;;;;;;;1.04;84.66;99231.38;4875335;29;20239;-79
2021/01/09 04:53:10;;;;;;;29.95;18.30;;;;;;;1.00;83.70;99235.88;4879566;29;20226;-78
2021/01/09 04:55:36;;;;;;;28.40;18.48;;;;;;;0.87;83.80;99234.44;4875062;29;20230;-78
2021/01/09 04:58:03;;;;;;;30.35;18.15;;;;;;;0.89;83.98;99243.22;4886326;29;20230;-78
2021/01/09 05:00:29;;;;;;;32.00;18.65;;;;;;;0.93;83.85;99244.00;4887530;29;20305;-81
2021/01/09 05:02:58;;;;;;;32.35;18.55;;;;;;;1.02;83.88;99249.94;4905183;29;20214;-78
2021/01/09 05:05:25;;;;;;;30.33;18.60;;;;;;;1.01;83.69;99242.91;4871700;29;20241;-79
2021/01/09 05:07:51;;;;;;;28.33;16.95;;;;;;;1.02;83.60;99249.03;4889485;29;20225;-79
2021/01/09 05:10:17;;;;;;;31.77;19.60;;;;;;;1.06;83.55;99256.91;4885317;29;20721;-79
2021/01/09 05:12:43;;;;;;;26.40;16.75;;;;;;;1.13;83.31;99253.19;4891757;29;20221;-79
2021/01/09 05:15:10;;;;;;;32.78;19.45;;;;;;;1.11;83.54;99254.13;4869084;28;20212;-79
2021/01/09 05:17:38;;;;;;;27.95;17.13;;;;;;;1.11;83.11;99254.97;4892883;29;20202;-79
2021/01/09 05:20:08;;;;;;;25.23;16.15;;;;;;;1.12;83.17;99250.56;4885614;29;20254;-78
2021/01/09 05:22:38;;;;;;;25.42;17.13;;;;;;;1.08;83.37;99259.47;4874920;29;20230;-78
2021/01/09 05:25:05;;;;;;;25.38;15.40;;;;;;;1.12;83.06;99256.75;4886448;29;20266;-79
2021/01/09 05:27:34;;;;;;;27.85;18.00;;;;;;;1.15;82.74;99261.06;4887007;29;20314;-79
2021/01/09 05:30:00;;;;;;;28.15;17.27;;;;;;;1.09;82.95;99264.75;4917528;29;20273;-80
2021/01/09 05:32:27;;;;;;;27.85;18.13;;;;;;;1.12;82.87;99264.69;4881902;29;20651;-80
2021/01/09 05:34:57;;;;;;;31.08;17.83;;;;;;;1.10;83.15;99262.97;4905312;29;20230;-79
2021/01/09 05:37:25;;;;;;;35.78;19.77;;;;;;;1.12;82.68;99262.03;4883382;29;20225;-80
2021/01/09 05:39:54;;;;;;;30.10;18.90;;;;;;;1.22;82.71;99263.50;4885021;29;20254;-79
2021/01/09 05:42:23;;;;;;;28.92;17.45;;;;;;;1.25;82.46;99263.44;4890027;29;20981;-78
2021/01/09 05:44:53;;;;;;;28.85;18.08;;;;;;;1.21;82.28;99258.25;4904173;29;20232;-80
2021/01/09 05:47:21;;;;;;;26.15;16.92;;;;;;;1.20;82.39;99257.41;4902406;29;20241;-78
2021/01/09 05:49:47;;;;;;;25.83;17.20;;;;;;;1.19;82.46;99260.97;4884201;29;20223;-80
2021/01/09 05:52:14;;;;;;;28.65;18.10;;;;;;;1.24;82.46;99256.38;4899888;29;20233;-80
2021/01/09 05:54:41;;;;;;;29.75;17.10;;;;;;;1.24;81.97;99260.84;4898888;29;20232;-79
2021/01/09 05:57:14;;;;;;;25.52;17.02;;;;;;;1.24;82.10;99261.69;4870411;29;20208;-78
2021/01/09 05:59:41;;;;;;;30.13;17.45;;;;;;;1.26;82.52;99262.53;4900408;29;20222;-78
2021/01/09 06:02:08;;;;;;;26.75;17.00;;;;;;;1.23;82.46;99267.91;4902362;29;20259;-80
2021/01/09 06:04:44;;;;;;;24.30;15.80;;;;;;;1.24;82.47;99255.53;4871508;29;20238;-80
2021/01/09 06:07:21;;;;;;;24.02;16.60;;;;;;;1.19;82.70;99253.00;4869822;29;20237;-79
2021/01/09 06:09:57;;;;;;;28.05;16.13;;;;;;;1.18;82.58;99253.03;4866961;29;20229;-79
2021/01/09 06:12:26;;;;;;;29.20;17.00;;;;;;;1.18;82.74;99258.34;4872031;29;20312;-80
2021/01/09 06:14:53;;;;;;;30.88;17.75;;;;;;;1.21;82.58;99260.91;4910414;29;20221;-79
2021/01/09 06:17:22;;;;;;;25.10;16.42;;;;;;;1.26;82.36;99259.88;4929155;29;20232;-77
2021/01/09 06:19:48;;;;;;;28.10;17.15;;;;;;;1.30;82.52;99266.81;4904743;29;20214;-79
2021/01/09 06:22:15;;;;;;;28.48;17.65;;;;;;;1.34;82.30;99263.19;4930151;29;20221;-78
2021/01/09 06:24:41;;;;;;;24.60;15.82;;;;;;;1.40;82.29;99256.84;4911580;29;20245;-79
2021/01/09 06:27:16;;;;;;;28.35;18.15;;;;;;;1.44;82.05;99270.00;4924784;29;20232;-78
2021/01/09 06:29:48;;;;;;;27.20;19.02;;;;;;;1.38;82.29;99259.56;4892045;29;20221;-79
2021/01/09 06:32:19;;;;;;;29.80;18.48;;;;;;;1.36;81.82;99263.16;4891509;29;20336;-79
2021/01/09 06:34:49;;;;;;;30.65;18.27;;;;;;;1.36;81.62;99266.66;4877927;29;20806;-77
2021/01/09 06:37:22;;;;;;;29.10;17.40;;;;;;;1.33;81.97;99266.75;4909360;29;20629;-79
2021/01/09 06:39:50;;;;;;;24.75;17.70;;;;;;;1.32;82.32;99275.63;4876639;29;20234;-79
2021/01/09 06:42:18;;;;;;;29.75;17.92;;;;;;;1.32;82.55;99272.97;4882930;29;20206;-79
2021/01/09 06:44:51;;;;;;;27.38;18.20;;;;;;;1.35;82.38;99264.94;4868543;29;20242;-79
2021/01/09 06:47:29;;;;;;;27.45;17.50;;;;;;;1.39;82.24;99278.94;4922429;29;20281;-79
2021/01/09 06:50:15;;;;;;;25.55;16.52;;;;;;;1.40;82.00;99270.97;4903576;29;20230;-79
2021/01/09 06:53:16;;;;;;;28.92;17.88;;;;;;;1.45;81.80;99277.03;4887910;28;20258;-78
2021/01/09 06:55:42;;;;;;;28.80;17.48;;;;;;;1.46;81.84;99278.75;4862434;29;20221;-79
2021/01/09 06:58:13;;;;;;;27.97;16.33;;;;;;;1.46;81.82;99278.75;4898619;29;20285;-79
2021/01/09 07:00:40;;;;;;;27.83;16.90;;;;;;;1.44;82.13;99280.59;4872628;29;20482;-77
2021/01/09 07:03:11;;;;;;;28.83;17.67;;;;;;;1.48;82.27;99281.38;4899915;29;20297;-78
2021/01/09 07:05:43;;;;;;;28.00;18.52;;;;;;;1.36;82.36;99284.34;4892496;29;20225;-78
2021/01/09 07:08:30;;;;;;;29.08;18.05;;;;;;;1.39;82.50;99290.44;4920359;29;20281;-78
2021/01/09 07:10:59;;;;;;;26.10;18.30;;;;;;;1.40;82.64;99289.53;4906338;29;20324;-79
2021/01/09 07:13:27;;;;;;;29.48;17.25;;;;;;;1.42;82.66;99293.00;4872470;29;20213;-79
2021/01/09 07:16:10;;;;;;;32.22;19.15;;;;;;;1.44;82.45;99295.59;4875763;29;20230;-79
2021/01/09 07:18:40;;;;;;;30.63;18.30;;;;;;;1.40;82.32;99297.47;4916144;29;20228;-79
2021/01/09 07:21:07;;;;;;;25.45;17.13;;;;;;;1.52;82.35;99307.75;4888140;29;20230;-80
2021/01/09 07:23:35;;;;;;;30.23;18.65;;;;;;;1.49;81.93;99297.22;4911914;29;20207;-80
2021/01/09 07:26:04;;;;;;;28.88;16.65;;;;;;;1.48;81.99;99313.16;4887406;29;20233;-79
2021/01/09 07:28:36;;;;;;;28.42;16.25;;;;;;;1.44;82.38;99312.38;4859167;29;20225;-79
2021/01/09 07:31:08;;;;;;;26.23;17.67;;;;;;;1.47;82.24;99319.34;4883072;29;20233;-80
2021/01/09 07:33:37;;;;;;;31.30;18.38;;;;;;;1.45;81.99;99318.53;4870529;29;20282;-79
2021/01/09 07:36:04;;;;;;;25.40;15.60;;;;;;;1.41;81.79;99319.53;4882052;29;20229;-80
2021/01/09 07:38:30;;;;;;;26.40;16.33;;;;;;;1.42;82.11;99319.47;4877334;29;20214;-79
2021/01/09 07:41:00;;;;;;;25.33;15.93;;;;;;;1.42;81.99;99327.44;4878147;29;20229;-78
2021/01/09 07:43:44;;;;;;;25.77;15.90;;;;;;;1.45;81.63;99331.78;4886310;29;20239;-80
2021/01/09 07:46:24;;;;;;;25.58;16.45;;;;;;;1.53;81.52;99337.75;4878959;29;20238;-79
2021/01/09 07:48:51;;;;;;;24.75;16.25;;;;;;;1.56;81.92;99338.53;4857318;29;20226;-79
2021/01/09 07:51:19;;;;;;;28.10;17.13;;;;;;;1.68;81.56;99338.19;4874410;29;20248;-79
2021/01/09 07:53:47;;;;;;;29.40;17.88;;;;;;;1.78;81.27;99339.69;4894407;29;20190;-79
2021/01/09 07:56:46;;;;;;;24.20;17.02;;;;;;;1.76;81.09;99338.88;4880428;29;20241;-79
2021/01/09 07:59:18;;;;;;;27.70;18.83;;;;;;;1.78;81.19;99333.53;4874876;29;20233;-79
2021/01/09 08:01:45;;;;;;;27.67;16.83;;;;;;;1.83;80.82;99343.09;4880878;29;20725;-79
2021/01/09 08:04:12;;;;;;;28.33;18.13;;;;;;;1.90;80.53;99343.78;4862688;29;20224;-79
2021/01/09 08:06:39;;;;;;;27.30;18.35;;;;;;;1.93;80.55;99344.56;4889307;29;20241;-80
2021/01/09 08:09:08;;;;;;;27.60;16.92;;;;;;;1.91;80.06;99349.06;4904324;29;20205;-80
2021/01/09 08:11:44;;;;;;;24.70;15.82;;;;;;;1.86;80.71;99352.75;4876443;29;20198;-80
2021/01/09 08:14:14;;;;;;;29.77;18.30;;;;;;;1.92;80.59;99358.75;4894617;29;20253;-80
2021/01/09 08:16:41;;;;;;;25.80;16.52;;;;;;;1.93;80.65;99357.81;4875344;29;20320;-80
2021/01/09 08:19:15;;;;;;;25.92;17.38;;;;;;;1.99;80.48;99360.31;4891698;29;20728;-79
2021/01/09 08:21:41;;;;;;;25.58;17.10;;;;;;;1.98;79.94;99369.19;4895947;29;20257;-79
2021/01/09 08:24:09;;;;;;;22.90;15.50;;;;;;;2.06;80.11;99361.03;4869686;29;20218;-79
2021/01/09 08:26:36;;;;;;;24.58;16.70;;;;;;;2.10;79.88;99375.91;4883538;29;20204;-79
2021/01/09 08:29:02;;;;;;;25.20;15.30;;;;;;;2.06;79.50;99372.47;4881497;29;20218;-78
2021/01/09 08:31:28;;;;;;;29.27;15.50;;;;;;;2.16;79.60;99371.31;4877436;29;20301;-79
2021/01/09 08:33:54;;;;;;;25.58;15.13;;;;;;;2.18;79.23;99377.44;4880144;29;20325;-80
2021/01/09 08:36:21;;;;;;;23.73;15.50;;;;;;;2.26;78.99;99379.91;4867276;29;20209;-80
2021/01/09 08:38:49;;;;;;;25.95;16.90;;;;;;;2.31;78.31;99384.16;4897275;29;20197;-80
2021/01/09 08:41:15;;;;;;;24.10;16.35;;;;;;;2.54;77.83;99387.00;4879664;29;20600;-80
2021/01/09 08:43:41;;;;;;;34.17;21.25;;;;;;;2.53;77.77;99384.41;4883840;29;20234;-78
2021/01/09 08:46:12;;;;;;;25.90;18.23;;;;;;;2.55;77.40;99383.44;4893218;29;20238;-80
2021/01/09 08:48:40;;;;;;;24.58;16.05;;;;;;;2.62;77.43;99392.94;4891761;29;20235;-79
2021/01/09 08:51:14;;;;;;;21.83;15.60;;;;;;;2.57;77.02;99383.41;4901250;29;20777;-78
2021/01/09 08:54:01;;;;;;;26.90;18.52;;;;;;;2.57;76.67;99376.28;4907023;29;20185;-78
2021/01/09 08:56:29;;;;;;;28.60;19.50;;;;;;;2.77;76.71;99389.81;4879312;29;20229;-79
2021/01/09 08:59:00;;;;;;;22.85;16.80;;;;;;;2.76;76.70;99392.56;4872146;29;20337;-79
2021/01/09 09:01:36;;;;;;;22.50;15.75;;;;;;;2.76;76.44;99392.56;4889454;29;20243;-78
2021/01/09 09:04:05;;;;;;;22.25;17.00;;;;;;;2.77;76.56;99394.28;4908192;29;20225;-79
2021/01/09 09:06:41;;;;;;;22.45;15.15;;;;;;;2.85;76.35;99397.56;4901556;29;20218;-79
2021/01/09 09:09:08;;;;;;;22.13;15.25;;;;;;;2.90;75.88;99393.00;4880043;29;20348;-78
2021/01/09 09:11:35;;;;;;;24.00;16.70;;;;;;;2.94;75.78;99390.19;4889169;29;20233;-79
2021/01/09 09:14:11;;;;;;;26.77;16.52;;;;;;;2.87;74.81;99387.75;4892950;29;20210;-80
2021/01/09 09:16:38;;;;;;;25.60;16.17;;;;;;;2.83;75.04;99381.66;4905925;29;20725;-80
2021/01/09 09:19:16;;;;;;;22.27;15.65;;;;;;;2.97;75.36;99389.22;4889160;29;20220;-80
2021/01/09 09:21:46;;;;;;;23.48;15.55;;;;;;;3.16;74.82;99391.22;4890348;29;20274;-81
2021/01/09 09:24:13;;;;;;;23.02;16.13;;;;;;;3.29;74.49;99389.91;4896158;29;20210;-80
2021/01/09 09:26:41;;;;;;;22.25;14.68;;;;;;;3.39;73.86;99386.06;4909965;29;20194;-79
2021/01/09 09:29:09;;;;;;;23.38;16.67;;;;;;;3.48;73.25;99391.06;4879513;29;20234;-79
2021/01/09 09:31:41;;;;;;;22.30;15.27;;;;;;;3.39;73.11;99391.38;4876908;29;20273;-80
2021/01/09 09:34:11;;;;;;;21.50;14.10;;;;;;;3.44;73.57;99388.56;4897431;29;20717;-80
2021/01/09 09:36:58;;;;;;;23.52;13.77;;;;;;;3.57;72.89;99387.22;4874321;29;20221;-80
2021/01/09 09:39:26;;;;;;;20.35;12.20;;;;;;;3.43;71.97;99387.72;4868573;29;20230;-80
2021/01/09 09:42:00;;;;;;;19.70;12.43;;;;;;;3.33;72.14;99388.91;4913814;29;20197;-79
2021/01/09 09:44:40;;;;;;;20.45;13.80;;;;;;;3.24;72.39;99397.19;4905728;29;20225;-80
2021/01/09 09:47:27;;;;;;;18.48;11.40;;;;;;;3.03;72.17;99400.50;4892612;29;20781;-80
2021/01/09 09:50:12;;;;;;;19.92;11.85;;;;;;;2.90;72.89;99407.13;4898063;29;20226;-80
2021/01/09 09:52:39;;;;;;;18.17;11.77;;;;;;;2.77;73.51;99408.41;4902907;29;20238;-80
2021/01/09 09:55:07;;;;;;;21.25;12.75;;;;;;;2.68;74.06;99405.16;4904630;29;20226;-80
2021/01/09 09:57:33;;;;;;;21.98;12.80;;;;;;;2.61;74.01;99409.81;4900559;29;20293;-78
2021/01/09 10:00:11;;;;;;;14.50;10.98;;;;;;;2.81;73.50;99414.50;4880929;29;20229;-78
2021/01/09 10:02:53;;;;;;;19.88;12.15;;;;;;;2.81;73.18;99418.03;4895159;29;20621;-79
2021/01/09 10:05:20;;;;;;;19.88;12.38;;;;;;;2.73;73.06;99420.06;4905597;29;20291;-79
2021/01/09 10:07:46;;;;;;;16.95;11.40;;;;;;;2.95;73.48;99420.28;4894918;29;20246;-79
2021/01/09 10:10:19;;;;;;;16.60;10.30;;;;;;;3.07;72.69;99423.41;4894986;29;20687;-79
2021/01/09 10:12:58;;;;;;;20.10;12.50;;;;;;;3.28;72.68;99432.50;4903074;29;20229;-79
2021/01/09 10:15:25;;;;;;;15.18;11.05;;;;;;;3.40;71.69;99413.50;4896577;29;20237;-79
2021/01/09 10:17:59;;;;;;;16.70;11.00;;;;;;;3.76;71.26;99421.13;4893659;29;20209;-79
2021/01/09 10:20:25;;;;;;;15.32;10.65;;;;;;;3.90;70.06;99424.19;4882107;29;20238;-79
2021/01/09 10:22:52;;;;;;;14.65;10.50;;;;;;;4.05;69.15;99420.97;4883737;29;20222;-79
2021/01/09 10:25:18;;;;;;;16.15;9.68;;;;;;;4.04;67.49;99424.56;4884777;29;20328;-78
2021/01/09 10:27:45;;;;;;;16.88;12.00;;;;;;;3.97;68.27;99422.19;4879723;29;20265;-79
2021/01/09 10:30:12;;;;;;;12.25;9.15;;;;;;;3.85;68.32;99431.44;4897190;29;20224;-79
2021/01/09 10:32:38;;;;;;;13.48;9.68;;;;;;;4.14;67.72;99428.66;4883921;29;20233;-81
2021/01/09 10:35:06;;;;;;;16.98;11.10;;;;;;;4.23;67.11;99419.50;4907824;29;20712;-80
2021/01/09 10:37:32;;;;;;;15.52;9.82;;;;;;;4.32;65.79;99414.72;4907072;29;20234;-80
2021/01/09 10:39:58;;;;;;;13.88;9.15;;;;;;;4.39;66.13;99415.34;4896351;29;20249;-80
2021/01/09 10:42:28;;;;;;;14.07;9.20;;;;;;;4.59;66.14;99416.34;4898554;29;20233;-80
2021/01/09 10:44:54;;;;;;;13.35;8.60;;;;;;;4.37;65.27;99415.38;4895115;29;20210;-79
2021/01/09 10:47:21;;;;;;;13.40;9.55;;;;;;;4.44;65.16;99418.72;4911792;29;20550;-79
2021/01/09 10:49:48;;;;;;;13.30;8.65;;;;;;;4.35;64.45;99414.59;4914071;29;20230;-77
2021/01/09 10:52:14;;;;;;;12.73;9.30;;;;;;;4.38;65.00;99413.59;4896914;29;20256;-79
2021/01/09 10:54:40;;;;;;;14.35;9.55;;;;;;;4.41;65.16;99416.13;4901290;29;20308;-79
2021/01/09 10:57:06;;;;;;;11.30;8.57;;;;;;;4.23;65.35;99417.69;4906394;29;20285;-78
2021/01/09 10:59:33;;;;;;;14.88;9.25;;;;;;;4.17;65.97;99415.22;4897574;29;20206;-79
2021/01/09 11:02:03;;;;;;;13.90;10.25;;;;;;;4.31;65.93;99420.94;4896010;29;20231;-79
2021/01/09 11:04:30;;;;;;;12.38;8.88;;;;;;;4.09;65.15;99417.31;4880454;29;20253;-79
2021/01/09 11:06:57;;;;;;;15.10;10.20;;;;;;;3.99;66.12;99418.53;4905257;29;20232;-79
2021/01/09 11:09:23;;;;;;;13.60;9.40;;;;;;;3.95;66.80;99416.03;4926718;29;20228;-79
2021/01/09 11:12:00;;;;;;;14.20;9.07;;;;;;;3.99;66.54;99412.38;4912662;29;20590;-79
2021/01/09 11:14:27;;;;;;;15.07;9.27;;;;;;;3.95;66.62;99406.28;4913905;29;20302;-79
2021/01/09 11:16:54;;;;;;;15.05;9.77;;;;;;;3.97;66.91;99407.09;4893710;29;20258;-79
2021/01/09 11:19:21;;;;;;;13.75;9.50;;;;;;;3.84;67.36;99403.13;4892117;29;20230;-79
2021/01/09 11:21:47;;;;;;;12.45;8.85;;;;;;;3.63;67.01;99414.50;4891096;29;20225;-79
2021/01/09 11:24:14;;;;;;;14.70;9.60;;;;;;;3.55;67.55;99411.22;4901140;29;20225;-79
2021/01/09 11:26:40;;;;;;;13.52;8.77;;;;;;;3.52;67.44;99408.66;4888731;29;20216;-80
2021/01/09 11:29:06;;;;;;;13.77;9.20;;;;;;;3.47;68.03;99402.63;4881525;29;20329;-80
2021/01/09 11:31:32;;;;;;;15.40;9.45;;;;;;;3.62;68.06;99409.22;4906198;29;20480;-80
2021/01/09 11:33:59;;;;;;;17.40;10.05;;;;;;;3.63;68.88;99406.50;4905981;29;20222;-80